VIJP/JAI METAR and TAF weather

Enter ICAO airport designator
Station Type Date Time Source
VIJP METAR 2024/04/15 09:00 UTC NOAA

VIJP 150900Z 27012KT 5000 HZ SCT030 SCT100 34/14 Q1013 NOSIG


Station Type Date Time Source
VIJP Decoded METAR 2024/04/15 09:00 UTC NOAA

Jaipur / Sanganer, India (VIJP) 26-49N 075-48E 390M
Apr 15, 2024 - 05:00 AM EDT / 2024.04.15 0900 UTC
Wind: from the W (270 degrees) at 14 MPH (12 KT):0
Visibility: 3 mile(s):0
Sky conditions: partly cloudy
Weather: haze
Temperature: 93 F (34 C)
Dew Point: 57 F (14 C)
Relative Humidity: 30%
Pressure (altimeter): 29.91 in. Hg (1013 hPa)
ob: VIJP 150900Z 27012KT 5000 HZ SCT030 SCT100 34/14 Q1013 NOSIG
cycle: 9

Station Type Date Time Source
VIJP TAF 2024/04/15 06:00 UTC NOAA